• Join FlightAware (Why Join?)
  • Login
  • US Flag 
12:27PM EDT


 

Airport Tracker/Info


-or-


 

Live Flight TrackerFlight Track Log ✈ N240JK ✈ 17-Jun-2014 ✈ KUES - KPIE

Flight Track Log - Related Links

Times and Time Zones

All times are in EDT time to prevent confusion due to time zone crossing. See the N240JK flight status page for this flight to view local times or setup timezone preferences in your user account.

Time Position Orientation Groundspeed Altitude Reporting Facility
EDT Latitude Longitude Course Direction KTS MPH feet Rate Location/Type
03:43PM 43.0500 -88.2667 245° Southwest 174 200 1,800  Level KMKE
03:44PM 43.0333 -88.3167 246° West 221 254 4,200 3,120 Climbing KMKE
03:45PM 42.9886 -88.3111 175° South 262 302 7,000 3,000 Climbing Chicago Center
03:46PM 42.9639 -88.2183 110° East 265 305 10,200 2,700 Climbing Chicago Center
03:47PM 42.9461 -88.0694 99° East 337 388 12,600 2,280 Climbing Chicago Center
03:48PM 42.8914 -87.9625 125° Southeast 347 399 15,000 1,620 Climbing Chicago Center
03:49PM 42.8339 -87.8547 126° Southeast 349 402 16,000 480 Climbing Chicago Center
03:50PM 42.7644 -87.7558 134° Southeast 367 422 16,100 480 Climbing Chicago Center
03:51PM 42.6639 -87.7472 176° South 363 418 17,000 720 Climbing Chicago Center
03:52PM 42.5553 -87.7572 184° South 385 443 17,700 1,260 Climbing Chicago Center
03:53PM 42.4225 -87.7661 183° South 395 455 19,700 2,040 Climbing Chicago Center
03:54PM 42.3183 -87.7708 182° South 407 468 22,000 2,160 Climbing Chicago Center
03:55PM 42.2025 -87.7758 182° South 413 475 24,300 2,400 Climbing Chicago Center
03:56PM 42.0639 -87.7817 182° South 413 475 27,000 2,220 Climbing Chicago Center
03:57PM 41.9464 -87.7858 182° South 418 481 28,900 1,980 Climbing Chicago Center
03:58PM 41.8272 -87.7917 182° South 424 488 31,100 2,040 Climbing Chicago Center
03:59PM 41.7083 -87.7967 182° South 426 490 33,200 1,380 Climbing Chicago Center
04:00PM 41.5864 -87.8025 182° South 430 495 34,000 360 Climbing Chicago Center
04:01PM 41.4611 -87.8075 182° South 442 509 34,000  Level Chicago Center
04:02PM 41.3353 -87.8133 182° South 443 510 34,100 840 Climbing Chicago Center
04:03PM 41.1889 -87.8219 183° South 437 503 35,800 1,200 Climbing Chicago Center
04:04PM 41.0669 -87.8214 180° South 437 503 36,700 1,200 Climbing Chicago Center
04:05PM 40.9517 -87.7914 169° South 425 489 38,300 1,080 Climbing Chicago Center
04:07PM 40.8353 -87.7631 170° South 425 489 39,000 300 Climbing Chicago Center
04:08PM 40.7200 -87.7333 169° South 425 489 39,000  Level Chicago Center
04:09PM 40.6050 -87.7053 170° South 424 488 39,000  Level Chicago Center
04:10PM 40.4636 -87.6711 170° South 428 493 39,000  Level Chicago Center
04:11PM 40.3461 -87.6425 169° South 429 494 39,000  Level Chicago Center
04:12PM 40.2281 -87.6136 169° South 431 496 39,000  Level Chicago Center
04:13PM 40.1053 -87.5844 170° South 429 494 39,000  Level Chicago Center
04:14PM 39.9889 -87.5578 170° South 428 493 39,000  Level Chicago Center
04:15PM 39.8714 -87.5297 170° South 428 493 39,000  Level Chicago Center
04:16PM 39.7525 -87.5014 170° South 433 498 39,000  Level Chicago Center
04:17PM 39.6336 -87.4750 170° South 433 498 39,000  Level Chicago Center
04:18PM 39.4917 -87.4397 169° South 433 498 39,000  Level Chicago Center
04:19PM 39.3719 -87.4128 170° South 435 501 39,000  Level Chicago Center
04:20PM 39.2522 -87.3847 170° South 437 503 39,000  Level Chicago Center
04:21PM 39.1319 -87.3569 170° South 437 503 39,000  Level Chicago Center
04:22PM 38.9817 -87.3206 169° South 438 504 39,000  Level Indianapolis Center
04:23PM 38.8594 -87.2925 170° South 440 506 39,000  Level Indianapolis Center
04:24PM 38.7111 -87.2578 170° South 445 512 39,000  Level Indianapolis Center
04:25PM 38.5886 -87.2300 170° South 448 516 39,000  Level Indianapolis Center
04:26PM 38.4656 -87.2031 170° South 448 516 39,000  Level Indianapolis Center
04:27PM 38.3494 -87.1778 170° South 449 517 39,000  Level Indianapolis Center
04:28PM 38.2014 -87.1414 169° South 452 520 39,000  Level Indianapolis Center
04:30PM 38.0769 -87.1131 170° South 452 520 39,000  Level Indianapolis Center
04:31PM 37.9553 -87.0858 170° South 448 516 39,000  Level Indianapolis Center
04:32PM 37.8319 -87.0578 170° South 448 516 39,000  Level Indianapolis Center
04:33PM 37.7067 -87.0294 170° South 449 517 39,000  Level Indianapolis Center
04:34PM 37.5822 -87.0003 169° South 451 519 39,000  Level Indianapolis Center
04:35PM 37.4436 -86.9700 170° South 455 524 39,000  Level Indianapolis Center
04:36PM 37.3167 -86.9419 170° South 456 525 39,000  Level Indianapolis Center
04:37PM 37.1897 -86.9139 170° South 456 525 39,000  Level Indianapolis Center
04:38PM 37.0406 -86.8806 170° South 458 527 39,000  Level Indianapolis Center
04:39PM 36.9131 -86.8519 170° South 459 528 39,000  Level Indianapolis Center
04:40PM 36.7847 -86.8247 170° South 459 528 39,000  Level Indianapolis Center
04:41PM 36.6569 -86.7967 170° South 461 531 39,000  Level Indianapolis Center
04:42PM 36.5292 -86.7678 170° South 461 531 39,000  Level Indianapolis Center
04:43PM 36.3986 -86.7358 169° South 461 531 39,000  Level Indianapolis Center
04:44PM 36.2614 -86.7086 171° South 476 548 39,000  Level Indianapolis Center
04:45PM 36.1319 -86.6825 171° South 469 540 39,000  Level Indianapolis Center
04:46PM 36.0100 -86.6236 159° South 467 537 39,000  Level Indianapolis Center
04:48PM 35.8261 -86.5314 158° South 467 537 39,000  Level Memphis Center
04:49PM 35.7028 -86.4706 158° South 468 539 39,000  Level Memphis Center
04:50PM 35.5797 -86.4097 158° South 468 539 39,000  Level Memphis Center
04:51PM 35.4561 -86.3506 159° South 469 540 39,000  Level Memphis Center
04:52PM 35.3131 -86.2769 157° South 470 541 39,000  Level Memphis Center
04:53PM 35.1883 -86.2181 159° South 471 542 39,000  Level Memphis Center
04:54PM 35.0781 -86.1658 159° South 472 543 39,000  Level Memphis Center
04:55PM 34.9317 -86.0944 158° South 472 543 39,000  Level Memphis Center
04:56PM 34.8056 -86.0328 158° South 474 545 39,000  Level Memphis Center
04:57PM 34.6808 -85.9736 159° South 476 548 39,000  Level Memphis Center
04:58PM 34.5750 -85.9183 157° South 478 550 39,000  Level Atlanta Center
04:59PM 34.4550 -85.8600 158° South 473 544 39,000  Level Atlanta Center
05:00PM 34.3181 -85.8019 161° South 473 544 39,000  Level Atlanta Center
05:02PM 34.0692 -85.6839 159° South 473 544 39,000  Level Atlanta Center
05:03PM 33.9447 -85.6264 159° South 473 544 39,000  Level Atlanta Center
05:04PM 33.8203 -85.5692 159° South 473 544 39,000  Level Atlanta Center
05:05PM 33.6958 -85.5119 159° South 473 544 39,000  Level Atlanta Center
05:06PM 33.5733 -85.4550 159° South 473 544 39,000  Level Atlanta Center
05:07PM 33.4508 -85.3981 159° South 478 550 39,000  Level Atlanta Center
05:08PM 33.3386 -85.3442 158° South 473 544 39,000  Level Atlanta Center
05:09PM 33.2181 -85.2878 159° South 473 544 39,000  Level Atlanta Center
05:10PM 33.0956 -85.2339 160° South 473 544 39,000  Level Atlanta Center
05:11PM 32.9625 -85.1628 156° South 473 544 39,000  Level Atlanta Center
05:12PM 32.8503 -85.1244 164° South 473 544 39,000  Level Atlanta Center
05:13PM 32.7317 -85.0611 156° South 467 537 39,000  Level Atlanta Center
05:14PM 32.6050 -84.9981 157° South 473 544 39,000  Level Atlanta Center
05:15PM 32.4844 -84.9375 157° South 473 544 39,000  Level Atlanta Center
05:17PM 32.1711 -84.7850 158° South 475 547 39,000  Level Jacksonville Center
05:18PM 32.0511 -84.7236 157° South 475 547 39,000  Level Jacksonville Center
05:19PM 31.9306 -84.6697 159° South 470 541 39,000  Level Jacksonville Center
05:20PM 31.8081 -84.6258 163° South 470 541 39,000  Level Jacksonville Center
05:21PM 31.6833 -84.5797 163° South 465 535 39,000  Level Jacksonville Center
05:22PM 31.5567 -84.5333 163° South 470 541 39,000  Level Jacksonville Center
05:23PM 31.4300 -84.4850 162° South 475 547 39,000  Level Jacksonville Center
05:24PM 31.3053 -84.4389 162° South 480 552 39,000  Level Jacksonville Center
05:25PM 31.1825 -84.3958 163° South 475 547 39,000  Level Jacksonville Center
05:26PM 31.0578 -84.3478 162° South 475 547 39,000  Level Jacksonville Center
05:27PM 30.9331 -84.3022 163° South 475 547 39,000  Level Jacksonville Center
05:28PM 30.8064 -84.2544 162° South 475 547 39,000  Level Jacksonville Center
05:29PM 30.6836 -84.2092 162° South 475 547 39,000  Level Jacksonville Center
05:30PM 30.5567 -84.1614 162° South 475 547 39,000  Level Jacksonville Center
05:31PM 30.4361 -84.1189 163° South 470 541 39,000  Level Jacksonville Center
05:32PM 30.3111 -84.0764 164° South 470 541 39,000  Level Jacksonville Center
05:33PM 30.1864 -84.0292 162° South 470 541 39,000  Level Jacksonville Center
05:34PM 30.0572 -83.9844 163° South 480 552 39,000  Level Jacksonville Center
05:35PM 29.9322 -83.9400 163° South 475 547 39,000  Level Jacksonville Center
05:36PM 29.8094 -83.8908 161° South 475 547 39,000 -600 Level Jacksonville Center
05:37PM 29.6972 -83.8228 152° Southeast 470 541 37,900 -1,800 Descending Jacksonville Center
05:38PM 29.5978 -83.7500 148° Southeast 465 535 35,500 -2,520 Descending Jacksonville Center
05:39PM 29.4853 -83.6822 152° Southeast 459 528 32,900 -2,580 Descending Jacksonville Center
05:40PM 29.3772 -83.6122 151° Southeast 454 522 30,400 -2,460 Descending Jacksonville Center
05:41PM 29.2692 -83.5425 151° Southeast 449 517 28,100 -2,220 Descending Jacksonville Center
05:42PM 29.1669 -83.4753 150° Southeast 444 511 26,000 -2,280 Descending Jacksonville Center
05:43PM 29.0650 -83.4128 152° Southeast 431 496 23,600 -2,460 Descending Jacksonville Center
05:44PM 28.9650 -83.3483 151° Southeast 419 482 21,200 -2,400 Descending Jacksonville Center
05:45PM 28.8714 -83.2861 150° Southeast 402 463 18,900 -2,160 Descending Jacksonville Center
05:46PM 28.7819 -83.2336 153° Southeast 381 438 16,900 -1,800 Descending Jacksonville Center
05:47PM 28.6942 -83.1767 150° Southeast 369 425 15,400 -1,140 Descending Jacksonville Center
05:48PM 28.6067 -83.1219 151° Southeast 369 425 14,700 -780 Descending Jacksonville Center
05:49PM 28.4833 -83.0500 153° Southeast 361 415 13,700 -1,200 Descending Tampa TRACON
05:50PM 28.4000 -83.0000 152° Southeast 372 428 12,100 -1,740 Descending Tampa TRACON
05:51PM 28.3167 -82.9333 145° Southeast 358 412 10,300 -1,140 Descending Tampa TRACON
05:52PM 28.2333 -82.8833 152° Southeast 299 344 9,900 -1,020 Descending Tampa TRACON
05:53PM 28.1500 -82.8833 180° South 269 310 8,300 -1,800 Descending Tampa TRACON
05:54PM 28.0833 -82.8833 180° South 282 325 6,400 -1,920 Descending Tampa TRACON
05:55PM 28.0167 -82.8833 180° South 266 306 4,700 -1,620 Descending Tampa TRACON
05:56PM 27.9500 -82.8667 168° South 232 267 3,400 -960 Descending Tampa TRACON
05:57PM 27.9000 -82.8667 180° South 194 223 2,900 -300 Descending Tampa TRACON
05:58PM 27.8500 -82.8500 164° South 173 199 2,900 -240 Level Tampa TRACON
05:59PM 27.8167 -82.8000 127° Southeast 172 198 2,500 -480 Descending Tampa TRACON
06:00PM 27.7833 -82.7667 138° Southeast 181 208 2,000 -300 Descending Tampa TRACON
06:01PM 27.7667 -82.7333 119° Southeast 171 197 2,000  Level Tampa TRACON
06:02PM 27.7833 -82.6833 69° East 166 191 2,000 -360 Level Tampa TRACON
06:03PM 27.8333 -82.6833 360° North 159 183 1,300 -720 Descending Tampa TRACON
06:04PM 27.8667 -82.6833 360° North 153 176 600 -720 Descending Tampa TRACON